createdAt,value
2022-12-28T00:05:01.285Z,101128.60
2022-12-28T00:15:31.315Z,101132.80
2022-12-28T00:20:30.937Z,101134.60
2022-12-28T00:25:30.189Z,101132.60
2022-12-28T00:30:29.375Z,101141.40
2022-12-28T00:35:30.831Z,101136.60
2022-12-28T00:40:29.868Z,101140.80
2022-12-28T00:45:29.252Z,101143.20
2022-12-28T00:50:28.090Z,101152.80
2022-12-28T00:55:27.836Z,101152.80
2022-12-28T01:00:27.647Z,101155.20
2022-12-28T01:05:29.675Z,101154.00
2022-12-28T01:10:28.728Z,101159.20
2022-12-28T01:15:29.577Z,101160.00
2022-12-28T01:20:30.706Z,101155.40
2022-12-28T01:25:30.379Z,101159.60
2022-12-28T01:30:32.055Z,101150.80
2022-12-28T01:35:33.059Z,101137.20
2022-12-28T01:40:32.522Z,101134.80
2022-12-28T01:45:32.224Z,101128.40
2022-12-28T01:50:33.560Z,101132.40
2022-12-28T01:55:37.203Z,101140.40
2022-12-28T02:00:40.381Z,101137.40
2022-12-28T02:05:44.607Z,101144.80
2022-12-28T02:10:47.698Z,101143.80
2022-12-28T02:15:48.988Z,101138.00
2022-12-28T02:21:13.864Z,101138.00
2022-12-28T02:26:46.323Z,101135.20
2022-12-28T02:31:54.490Z,101117.60
2022-12-28T02:37:02.636Z,101113.00
2022-12-28T02:42:03.126Z,101106.20
2022-12-28T02:47:37.331Z,101112.60
2022-12-28T02:53:04.792Z,101109.40
2022-12-28T02:58:39.011Z,101100.00
2022-12-28T03:03:53.088Z,101090.20
2022-12-28T03:09:03.998Z,101100.40
2022-12-28T03:14:12.279Z,101091.60
2022-12-28T03:19:31.792Z,101099.40
2022-12-28T03:24:53.949Z,101097.80
2022-12-28T03:30:21.057Z,101099.40
2022-12-28T03:35:24.982Z,101100.00
2022-12-28T03:40:38.748Z,101093.80
2022-12-28T03:45:47.959Z,101086.80
2022-12-28T03:50:52.958Z,101089.40
2022-12-28T03:55:53.898Z,101078.20
2022-12-28T04:00:52.785Z,101070.60
2022-12-28T04:05:53.627Z,101057.60
2022-12-28T04:10:53.251Z,101044.60
2022-12-28T04:16:03.545Z,101032.60
2022-12-28T04:21:03.784Z,101037.00
2022-12-28T04:26:05.964Z,101030.60
2022-12-28T04:31:09.723Z,101035.00
2022-12-28T04:36:14.477Z,101029.40
2022-12-28T04:41:14.730Z,101034.00
2022-12-28T04:46:18.541Z,101031.60
2022-12-28T04:51:22.456Z,101038.60
2022-12-28T04:56:23.991Z,101045.80
2022-12-28T05:01:25.133Z,101049.80
2022-12-28T05:06:27.616Z,101045.60
2022-12-28T05:11:30.338Z,101039.80
2022-12-28T05:16:31.667Z,101040.40
2022-12-28T05:21:32.105Z,101035.00
2022-12-28T05:26:34.861Z,101035.40
2022-12-28T05:31:34.705Z,101022.40
2022-12-28T05:36:39.570Z,101010.20
2022-12-28T05:41:38.692Z,101019.60
2022-12-28T05:46:39.299Z,101010.00
2022-12-28T05:51:39.947Z,101005.60
2022-12-28T05:56:40.456Z,101005.00
2022-12-28T06:01:43.410Z,100994.60
2022-12-28T06:06:42.574Z,100996.40
2022-12-28T06:11:41.920Z,101008.80
2022-12-28T06:16:43.599Z,101008.80
2022-12-28T06:21:45.179Z,101004.00
2022-12-28T06:26:45.250Z,101001.00
2022-12-28T06:31:49.408Z,100999.60
2022-12-28T06:36:51.580Z,101001.00
2022-12-28T06:41:51.047Z,100998.80
2022-12-28T06:46:49.765Z,100996.20
2022-12-28T06:51:48.559Z,100984.80
2022-12-28T06:56:48.166Z,100978.20
2022-12-28T07:01:47.207Z,100982.00
2022-12-28T07:06:47.893Z,100970.40
2022-12-28T07:11:51.193Z,100975.00
2022-12-28T07:16:50.521Z,100966.40
2022-12-28T07:21:52.256Z,100964.80
2022-12-28T07:26:53.605Z,100956.60
2022-12-28T07:31:53.518Z,100942.00
2022-12-28T07:36:53.637Z,100946.00
2022-12-28T07:41:53.507Z,100945.80
2022-12-28T07:46:54.746Z,100946.60
2022-12-28T07:51:54.342Z,100939.40
2022-12-28T07:56:53.110Z,100938.40
2022-12-28T08:01:54.617Z,100941.20
2022-12-28T08:06:54.252Z,100951.20
2022-12-28T08:11:56.947Z,100942.40
2022-12-28T08:16:56.606Z,100954.60
2022-12-28T08:21:55.702Z,100951.40
2022-12-28T08:26:55.631Z,100937.80
2022-12-28T08:31:55.578Z,100929.80
2022-12-28T08:36:55.496Z,100942.00
2022-12-28T08:41:54.759Z,100930.40
2022-12-28T08:46:55.936Z,100941.60
2022-12-28T08:51:55.277Z,100941.00
2022-12-28T08:56:55.709Z,100932.20
2022-12-28T09:01:54.791Z,100932.80
2022-12-28T09:06:54.378Z,100930.60
2022-12-28T09:11:53.806Z,100926.60
2022-12-28T09:16:53.890Z,100929.40
2022-12-28T09:21:55.364Z,100927.00
2022-12-28T09:26:55.627Z,100923.20
2022-12-28T09:31:55.336Z,100925.60
2022-12-28T09:36:54.836Z,100910.00
2022-12-28T09:42:01.080Z,100909.20
2022-12-28T09:47:13.240Z,100907.00
2022-12-28T09:52:31.913Z,100896.40
2022-12-28T09:57:39.495Z,100889.60
2022-12-28T10:02:42.459Z,100880.60
2022-12-28T10:07:42.196Z,100860.60
2022-12-28T10:12:43.831Z,100840.80
2022-12-28T10:17:44.639Z,100840.60
2022-12-28T10:22:50.199Z,100841.80
2022-12-28T10:27:49.919Z,100846.60
2022-12-28T10:33:02.659Z,100834.80
2022-12-28T10:38:08.250Z,100827.00
2022-12-28T10:43:11.060Z,100818.40
2022-12-28T10:48:20.603Z,100813.80
2022-12-28T10:53:30.843Z,100794.60
2022-12-28T10:58:33.236Z,100773.60
2022-12-28T11:03:39.078Z,100766.20
2022-12-28T11:08:39.828Z,100754.40
2022-12-28T11:13:40.785Z,100740.20
2022-12-28T11:18:40.188Z,100732.20
2022-12-28T11:23:41.164Z,100732.40
2022-12-28T11:28:45.172Z,100728.00
2022-12-28T11:33:49.835Z,100713.40
2022-12-28T11:38:52.255Z,100703.40
2022-12-28T11:43:59.119Z,100703.60
2022-12-28T11:49:04.896Z,100707.00
2022-12-28T11:54:07.116Z,100693.00
2022-12-28T11:59:25.524Z,100684.80
2022-12-28T12:04:47.647Z,100690.60
2022-12-28T12:09:50.905Z,100671.00
2022-12-28T12:14:57.171Z,100658.80
2022-12-28T12:20:02.875Z,100649.00
2022-12-28T12:25:17.460Z,100631.60
2022-12-28T12:30:23.191Z,100632.60
2022-12-28T12:35:26.028Z,100626.00
2022-12-28T12:41:01.988Z,100608.00
2022-12-28T12:46:20.856Z,100600.60
2022-12-28T12:51:33.165Z,100602.40
2022-12-28T12:56:47.443Z,100581.60
2022-12-28T13:02:04.974Z,100592.20
2022-12-28T13:07:17.810Z,100584.00
2022-12-28T13:12:21.431Z,100576.80
2022-12-28T13:17:25.596Z,100563.00
2022-12-28T13:22:36.448Z,100553.80
2022-12-28T13:27:41.068Z,100542.00
2022-12-28T13:32:51.509Z,100542.60
2022-12-28T13:38:05.847Z,100537.40
2022-12-28T13:43:42.877Z,100519.80
2022-12-28T13:48:47.937Z,100514.20
2022-12-28T13:53:52.370Z,100514.20
2022-12-28T13:59:00.032Z,100507.40
2022-12-28T14:04:42.367Z,100506.40
2022-12-28T14:09:26.926Z,100498.20
2022-12-28T14:14:26.672Z,100504.00
2022-12-28T14:19:25.982Z,100491.80
2022-12-28T14:24:25.139Z,100486.40
2022-12-28T14:29:31.321Z,100483.60
2022-12-28T14:34:35.855Z,100483.20
2022-12-28T14:39:38.143Z,100474.60
2022-12-28T14:44:41.995Z,100463.20
2022-12-28T14:49:44.230Z,100454.40
2022-12-28T14:54:51.685Z,100458.40
2022-12-28T14:59:57.642Z,100449.80
2022-12-28T15:05:00.609Z,100444.00
2022-12-28T15:10:00.377Z,100438.00
2022-12-28T15:14:59.747Z,100435.60
2022-12-28T15:19:58.622Z,100440.40
2022-12-28T15:24:57.981Z,100443.60
2022-12-28T15:30:06.348Z,100446.00
2022-12-28T15:35:06.939Z,100432.20
2022-12-28T15:40:07.546Z,100432.60
2022-12-28T15:45:10.565Z,100431.80
2022-12-28T15:50:11.919Z,100426.60
2022-12-28T15:55:12.510Z,100429.20
2022-12-28T16:00:19.054Z,100428.40
2022-12-28T16:05:18.783Z,100421.20
2022-12-28T16:10:19.173Z,100412.80
2022-12-28T16:15:18.653Z,100424.20
2022-12-28T16:20:19.106Z,100423.80
2022-12-28T16:25:18.724Z,100419.20
2022-12-28T16:30:18.875Z,100411.80
2022-12-28T16:35:19.404Z,100408.80
2022-12-28T16:40:19.357Z,100405.80
2022-12-28T16:45:20.064Z,100403.60
2022-12-28T16:50:21.367Z,100416.20
2022-12-28T16:55:22.224Z,100405.40
2022-12-28T17:00:22.568Z,100397.40
2022-12-28T17:05:22.097Z,100394.80
2022-12-28T17:10:22.119Z,100392.80
2022-12-28T17:15:21.903Z,100392.00
2022-12-28T17:20:21.026Z,100394.80
2022-12-28T17:25:20.204Z,100392.40
2022-12-28T17:30:20.098Z,100380.20
2022-12-28T17:35:19.034Z,100374.80
2022-12-28T17:40:18.593Z,100361.40
2022-12-28T17:45:18.372Z,100367.60
2022-12-28T17:50:18.335Z,100366.00
2022-12-28T17:55:17.631Z,100366.20
2022-12-28T18:00:22.980Z,100367.40
2022-12-28T18:05:21.999Z,100366.60
2022-12-28T18:10:22.735Z,100363.20
2022-12-28T18:15:23.909Z,100357.60
2022-12-28T18:20:25.350Z,100360.40
2022-12-28T18:25:24.669Z,100362.60
2022-12-28T18:30:23.912Z,100361.00
2022-12-28T18:35:26.952Z,100359.80
2022-12-28T18:40:26.541Z,100350.80
2022-12-28T18:45:26.012Z,100344.60
2022-12-28T18:50:25.571Z,100346.80
2022-12-28T18:55:25.712Z,100343.40
2022-12-28T19:00:25.025Z,100342.20
2022-12-28T19:05:25.460Z,100345.40
2022-12-28T19:10:24.795Z,100340.80
2022-12-28T19:15:24.494Z,100334.20
2022-12-28T19:20:24.382Z,100335.00
2022-12-28T19:25:23.570Z,100332.80
2022-12-28T19:30:23.801Z,100337.80
2022-12-28T19:35:23.351Z,100336.20
2022-12-28T19:40:22.316Z,100337.40
2022-12-28T19:45:22.278Z,100329.80
2022-12-28T19:50:23.462Z,100333.80
2022-12-28T19:55:22.819Z,100319.20
2022-12-28T20:00:26.246Z,100315.60
2022-12-28T20:05:26.013Z,100319.40
2022-12-28T20:10:25.890Z,100316.00
2022-12-28T20:15:24.781Z,100323.40
2022-12-28T20:20:40.673Z,100310.00
2022-12-28T20:25:56.935Z,100308.60
2022-12-28T20:31:00.652Z,100314.00
2022-12-28T20:36:05.882Z,100312.20
2022-12-28T20:41:32.873Z,100328.40
2022-12-28T20:46:32.048Z,100330.80
2022-12-28T20:51:31.904Z,100335.80
2022-12-28T20:56:31.187Z,100327.00
2022-12-28T21:01:33.153Z,100331.40
2022-12-28T21:06:32.399Z,100320.60
2022-12-28T21:11:33.508Z,100321.60
2022-12-28T21:16:32.771Z,100321.20
2022-12-28T21:21:32.384Z,100311.80
2022-12-28T21:26:31.270Z,100306.00
2022-12-28T21:31:30.118Z,100300.60
2022-12-28T21:36:29.827Z,100290.20
2022-12-28T21:41:52.980Z,100287.80
2022-12-28T21:46:55.203Z,100276.40
2022-12-28T21:51:59.645Z,100283.80
2022-12-28T21:57:00.777Z,100276.60
2022-12-28T22:02:20.116Z,100279.40
2022-12-28T22:07:25.315Z,100276.00
2022-12-28T22:12:37.667Z,100280.40
2022-12-28T22:17:37.404Z,100280.00
2022-12-28T22:22:36.990Z,100275.20
2022-12-28T22:27:36.651Z,100268.60
2022-12-28T22:32:36.458Z,100272.20
2022-12-28T22:37:37.421Z,100268.80
2022-12-28T22:42:40.898Z,100266.00
2022-12-28T22:47:41.137Z,100260.60
2022-12-28T22:52:40.565Z,100261.20
2022-12-28T22:57:41.048Z,100258.60
2022-12-28T23:02:41.760Z,100253.60
2022-12-28T23:07:41.555Z,100257.40
2022-12-28T23:12:41.402Z,100248.40
2022-12-28T23:17:40.481Z,100246.20
2022-12-28T23:22:57.868Z,100239.00
2022-12-28T23:27:59.723Z,100233.00
2022-12-28T23:33:03.232Z,100243.80
2022-12-28T23:38:41.016Z,100240.00
2022-12-28T23:43:53.250Z,100233.60
2022-12-28T23:48:53.113Z,100239.20
2022-12-28T23:53:52.885Z,100235.80
2022-12-28T23:58:54.172Z,100229.40
